sensor_id;sensor_type;location;lat;lon;timestamp;pressure;altitude;pressure_sealevel;temperature;humidity
47330;BME280;33060;50.178;7.570;2023-02-01T00:01:13;97442.09;;;3.70;100.00
47330;BME280;33060;50.178;7.570;2023-02-01T00:03:40;97451.84;;;3.65;100.00
47330;BME280;33060;50.178;7.570;2023-02-01T00:06:07;97445.75;;;3.64;100.00
47330;BME280;33060;50.178;7.570;2023-02-01T00:08:33;97461.38;;;3.66;100.00
47330;BME280;33060;50.178;7.570;2023-02-01T00:11:06;97455.34;;;3.64;100.00
47330;BME280;33060;50.178;7.570;2023-02-01T00:13:36;97455.88;;;3.74;100.00
47330;BME280;33060;50.178;7.570;2023-02-01T00:16:10;97444.56;;;3.73;100.00
47330;BME280;33060;50.178;7.570;2023-02-01T00:18:38;97443.50;;;3.79;100.00
47330;BME280;33060;50.178;7.570;2023-02-01T00:21:05;97446.97;;;3.79;100.00
47330;BME280;33060;50.178;7.570;2023-02-01T00:23:33;97443.38;;;3.82;100.00
47330;BME280;33060;50.178;7.570;2023-02-01T00:26:05;97436.44;;;3.82;100.00
47330;BME280;33060;50.178;7.570;2023-02-01T00:28:32;97435.69;;;3.79;100.00
47330;BME280;33060;50.178;7.570;2023-02-01T00:31:03;97445.16;;;3.81;100.00
47330;BME280;33060;50.178;7.570;2023-02-01T00:33:31;97440.78;;;3.82;100.00
47330;BME280;33060;50.178;7.570;2023-02-01T00:35:59;97444.34;;;3.79;100.00
47330;BME280;33060;50.178;7.570;2023-02-01T00:38:27;97442.59;;;3.80;100.00
47330;BME280;33060;50.178;7.570;2023-02-01T00:41:01;97436.88;;;3.93;100.00
47330;BME280;33060;50.178;7.570;2023-02-01T00:43:28;97434.69;;;3.83;100.00
47330;BME280;33060;50.178;7.570;2023-02-01T00:45:54;97428.41;;;3.87;100.00
47330;BME280;33060;50.178;7.570;2023-02-01T00:48:21;97438.72;;;3.91;100.00
47330;BME280;33060;50.178;7.570;2023-02-01T00:50:48;97450.16;;;3.87;100.00
47330;BME280;33060;50.178;7.570;2023-02-01T00:53:15;97445.50;;;3.95;100.00
47330;BME280;33060;50.178;7.570;2023-02-01T00:55:46;97451.97;;;3.85;100.00
47330;BME280;33060;50.178;7.570;2023-02-01T00:58:14;97451.97;;;3.85;100.00
47330;BME280;33060;50.178;7.570;2023-02-01T01:00:41;97457.91;;;3.89;100.00
47330;BME280;33060;50.178;7.570;2023-02-01T01:03:07;97450.03;;;3.90;100.00
47330;BME280;33060;50.178;7.570;2023-02-01T01:05:45;97446.63;;;3.88;100.00
47330;BME280;33060;50.178;7.570;2023-02-01T01:08:12;97446.69;;;3.87;100.00
47330;BME280;33060;50.178;7.570;2023-02-01T01:10:39;97447.53;;;3.87;100.00
47330;BME280;33060;50.178;7.570;2023-02-01T01:13:06;97451.13;;;3.85;100.00
47330;BME280;33060;50.178;7.570;2023-02-01T01:15:37;97449.22;;;3.88;100.00
47330;BME280;33060;50.178;7.570;2023-02-01T01:18:05;97444.81;;;3.90;100.00
47330;BME280;33060;50.178;7.570;2023-02-01T01:20:34;97446.56;;;3.90;100.00
47330;BME280;33060;50.178;7.570;2023-02-01T01:23:02;97449.28;;;3.87;100.00
47330;BME280;33060;50.178;7.570;2023-02-01T01:25:29;97439.72;;;3.87;100.00
47330;BME280;33060;50.178;7.570;2023-02-01T01:27:55;97448.03;;;3.97;100.00
47330;BME280;33060;50.178;7.570;2023-02-01T01:30:22;97445.50;;;3.95;100.00
47330;BME280;33060;50.178;7.570;2023-02-01T01:32:49;97450.72;;;3.95;100.00
47330;BME280;33060;50.178;7.570;2023-02-01T01:35:18;97448.94;;;3.96;100.00
47330;BME280;33060;50.178;7.570;2023-02-01T01:37:44;97449.94;;;3.93;100.00
47330;BME280;33060;50.178;7.570;2023-02-01T01:40:11;97442.88;;;3.95;100.00
47330;BME280;33060;50.178;7.570;2023-02-01T01:42:42;97439.38;;;3.96;100.00
47330;BME280;33060;50.178;7.570;2023-02-01T01:45:44;97436.03;;;3.93;100.00
47330;BME280;33060;50.178;7.570;2023-02-01T01:48:26;97425.69;;;3.90;100.00
47330;BME280;33060;50.178;7.570;2023-02-01T01:51:01;97425.66;;;3.91;100.00
47330;BME280;33060;50.178;7.570;2023-02-01T01:53:44;97414.19;;;3.95;100.00
47330;BME280;33060;50.178;7.570;2023-02-01T01:56:12;97397.16;;;3.85;100.00
47330;BME280;33060;50.178;7.570;2023-02-01T01:58:39;97399.56;;;3.91;100.00
47330;BME280;33060;50.178;7.570;2023-02-01T02:01:06;97406.81;;;3.83;100.00
47330;BME280;33060;50.178;7.570;2023-02-01T02:03:38;97408.47;;;3.86;100.00
47330;BME280;33060;50.178;7.570;2023-02-01T02:06:11;97390.91;;;3.89;100.00
47330;BME280;33060;50.178;7.570;2023-02-01T02:08:41;97389.47;;;3.82;100.00
47330;BME280;33060;50.178;7.570;2023-02-01T02:11:11;97386.69;;;3.87;100.00
47330;BME280;33060;50.178;7.570;2023-02-01T02:13:40;97376.66;;;3.76;100.00
47330;BME280;33060;50.178;7.570;2023-02-01T02:16:20;97379.34;;;3.73;100.00
47330;BME280;33060;50.178;7.570;2023-02-01T02:19:42;97390.13;;;3.64;100.00
47330;BME280;33060;50.178;7.570;2023-02-01T02:33:29;97406.00;;;3.81;100.00
47330;BME280;33060;50.178;7.570;2023-02-01T02:36:09;97406.75;;;3.85;100.00
47330;BME280;33060;50.178;7.570;2023-02-01T02:41:32;97396.25;;;3.86;100.00
47330;BME280;33060;50.178;7.570;2023-02-01T02:44:45;97406.75;;;3.85;100.00
47330;BME280;33060;50.178;7.570;2023-02-01T02:53:19;97406.69;;;3.86;100.00
47330;BME280;33060;50.178;7.570;2023-02-01T02:56:08;97402.47;;;3.84;100.00
47330;BME280;33060;50.178;7.570;2023-02-01T02:58:55;97395.47;;;3.84;100.00
47330;BME280;33060;50.178;7.570;2023-02-01T03:01:40;97390.31;;;3.83;100.00
47330;BME280;33060;50.178;7.570;2023-02-01T03:04:26;97400.69;;;3.84;100.00
47330;BME280;33060;50.178;7.570;2023-02-01T03:06:54;97397.13;;;3.87;100.00
47330;BME280;33060;50.178;7.570;2023-02-01T03:09:26;97398.25;;;3.80;100.00
47330;BME280;33060;50.178;7.570;2023-02-01T03:11:58;97393.59;;;3.88;100.00
47330;BME280;33060;50.178;7.570;2023-02-01T03:14:50;97388.59;;;3.82;100.00
47330;BME280;33060;50.178;7.570;2023-02-01T03:17:22;97380.66;;;3.85;100.00
47330;BME280;33060;50.178;7.570;2023-02-01T03:19:53;97388.59;;;3.82;100.00
47330;BME280;33060;50.178;7.570;2023-02-01T03:22:24;97387.09;;;3.76;100.00
47330;BME280;33060;50.178;7.570;2023-02-01T03:25:01;97382.50;;;3.83;100.00
47330;BME280;33060;50.178;7.570;2023-02-01T03:27:48;97380.59;;;3.86;100.00
47330;BME280;33060;50.178;7.570;2023-02-01T03:32:51;97375.63;;;3.80;100.00
47330;BME280;33060;50.178;7.570;2023-02-01T03:38:32;97362.91;;;3.71;100.00
47330;BME280;33060;50.178;7.570;2023-02-01T03:44:01;97374.75;;;3.80;100.00
47330;BME280;33060;50.178;7.570;2023-02-01T03:46:38;97379.97;;;3.80;100.00
47330;BME280;33060;50.178;7.570;2023-02-01T03:49:09;97379.03;;;3.82;100.00
47330;BME280;33060;50.178;7.570;2023-02-01T03:51:40;97374.75;;;3.80;100.00
47330;BME280;33060;50.178;7.570;2023-02-01T03:54:12;97373.75;;;3.84;100.00
47330;BME280;33060;50.178;7.570;2023-02-01T03:56:42;97389.47;;;3.82;100.00
47330;BME280;33060;50.178;7.570;2023-02-01T03:59:11;97380.72;;;3.83;100.00
47330;BME280;33060;50.178;7.570;2023-02-01T04:01:38;97377.22;;;3.84;100.00
47330;BME280;33060;50.178;7.570;2023-02-01T04:04:06;97384.25;;;3.82;100.00
47330;BME280;33060;50.178;7.570;2023-02-01T04:06:33;97382.38;;;3.86;100.00
47330;BME280;33060;50.178;7.570;2023-02-01T04:09:02;97374.59;;;3.84;100.00
47330;BME280;33060;50.178;7.570;2023-02-01T04:11:29;97379.25;;;3.76;100.00
47330;BME280;33060;50.178;7.570;2023-02-01T04:13:55;97381.97;;;3.73;100.00
47330;BME280;33060;50.178;7.570;2023-02-01T04:16:22;97371.38;;;3.78;100.00
47330;BME280;33060;50.178;7.570;2023-02-01T04:18:55;97380.25;;;3.72;100.00
47330;BME280;33060;50.178;7.570;2023-02-01T04:21:21;97377.44;;;3.78;100.00
47330;BME280;33060;50.178;7.570;2023-02-01T04:23:48;97378.50;;;3.73;100.00
47330;BME280;33060;50.178;7.570;2023-02-01T04:26:15;97383.56;;;3.77;100.00
47330;BME280;33060;50.178;7.570;2023-02-01T04:28:42;97389.75;;;3.75;100.00
47330;BME280;33060;50.178;7.570;2023-02-01T04:31:09;97383.84;;;3.69;100.00
47330;BME280;33060;50.178;7.570;2023-02-01T04:33:36;97384.97;;;3.62;100.00
47330;BME280;33060;50.178;7.570;2023-02-01T04:36:02;97379.66;;;3.65;100.00
47330;BME280;33060;50.178;7.570;2023-02-01T04:38:29;97379.59;;;3.67;100.00
47330;BME280;33060;50.178;7.570;2023-02-01T04:40:55;97375.19;;;3.69;100.00
47330;BME280;33060;50.178;7.570;2023-02-01T04:43:22;97380.31;;;3.71;100.00
47330;BME280;33060;50.178;7.570;2023-02-01T04:45:49;97375.25;;;3.67;100.00
47330;BME280;33060;50.178;7.570;2023-02-01T04:48:17;97377.31;;;3.81;100.00
47330;BME280;33060;50.178;7.570;2023-02-01T04:50:45;97367.97;;;3.76;100.00
47330;BME280;33060;50.178;7.570;2023-02-01T04:53:14;97373.06;;;3.79;100.00
47330;BME280;33060;50.178;7.570;2023-02-01T04:55:42;97375.03;;;3.74;100.00
47330;BME280;33060;50.178;7.570;2023-02-01T04:58:09;97372.84;;;3.85;100.00
47330;BME280;33060;50.178;7.570;2023-02-01T05:00:37;97378.56;;;3.94;100.00
47330;BME280;33060;50.178;7.570;2023-02-01T05:03:04;97371.00;;;3.87;100.00
47330;BME280;33060;50.178;7.570;2023-02-01T05:05:31;97373.81;;;3.82;100.00
47330;BME280;33060;50.178;7.570;2023-02-01T05:07:57;97373.13;;;3.77;100.00
47330;BME280;33060;50.178;7.570;2023-02-01T05:10:24;97373.19;;;3.76;100.00
47330;BME280;33060;50.178;7.570;2023-02-01T05:12:51;97370.66;;;3.74;100.00
47330;BME280;33060;50.178;7.570;2023-02-01T05:15:36;97374.75;;;3.80;100.00
47330;BME280;33060;50.178;7.570;2023-02-01T05:18:02;97372.94;;;3.82;100.00
47330;BME280;33060;50.178;7.570;2023-02-01T05:20:29;97385.09;;;3.83;100.00
47330;BME280;33060;50.178;7.570;2023-02-01T05:22:56;97396.38;;;3.83;100.00
47330;BME280;33060;50.178;7.570;2023-02-01T05:25:22;97396.38;;;3.83;100.00
47330;BME280;33060;50.178;7.570;2023-02-01T05:27:49;97395.47;;;3.84;100.00
47330;BME280;33060;50.178;7.570;2023-02-01T05:30:16;97405.84;;;3.86;100.00
47330;BME280;33060;50.178;7.570;2023-02-01T05:32:42;97404.25;;;3.82;100.00
47330;BME280;33060;50.178;7.570;2023-02-01T05:35:09;97400.91;;;3.78;100.00
47330;BME280;33060;50.178;7.570;2023-02-01T05:37:36;97400.97;;;3.77;99.82
47330;BME280;33060;50.178;7.570;2023-02-01T05:40:03;97389.78;;;3.73;99.01
47330;BME280;33060;50.178;7.570;2023-02-01T05:42:29;97390.97;;;3.64;99.27
47330;BME280;33060;50.178;7.570;2023-02-01T05:44:56;97392.34;;;3.51;100.00
47330;BME280;33060;50.178;7.570;2023-02-01T05:47:23;97390.59;;;3.52;100.00
47330;BME280;33060;50.178;7.570;2023-02-01T05:49:49;97389.19;;;3.43;99.80
47330;BME280;33060;50.178;7.570;2023-02-01T05:52:16;97399.59;;;3.43;99.62
47330;BME280;33060;50.178;7.570;2023-02-01T05:54:46;97392.13;;;3.34;99.45
47330;BME280;33060;50.178;7.570;2023-02-01T05:57:13;97386.44;;;3.23;99.49
47330;BME280;33060;50.178;7.570;2023-02-01T05:59:40;97373.28;;;3.26;98.38
47330;BME280;33060;50.178;7.570;2023-02-01T06:02:07;97373.41;;;3.23;97.49
47330;BME280;33060;50.178;7.570;2023-02-01T06:04:34;97386.53;;;3.20;96.38
47330;BME280;33060;50.178;7.570;2023-02-01T06:07:01;97392.84;;;3.12;95.42
47330;BME280;33060;50.178;7.570;2023-02-01T06:09:28;97390.31;;;3.11;96.00
47330;BME280;33060;50.178;7.570;2023-02-01T06:11:55;97407.94;;;3.04;96.36
47330;BME280;33060;50.178;7.570;2023-02-01T06:14:21;97398.91;;;3.15;96.21
47330;BME280;33060;50.178;7.570;2023-02-01T06:16:48;97399.81;;;3.12;95.73
47330;BME280;33060;50.178;7.570;2023-02-01T06:19:14;97410.53;;;3.04;95.77
47330;BME280;33060;50.178;7.570;2023-02-01T06:21:41;97403.56;;;3.05;95.07
47330;BME280;33060;50.178;7.570;2023-02-01T06:24:08;97402.41;;;3.14;94.70
47330;BME280;33060;50.178;7.570;2023-02-01T06:26:36;97403.88;;;3.21;94.87
47330;BME280;33060;50.178;7.570;2023-02-01T06:29:02;97401.91;;;3.27;93.92
47330;BME280;33060;50.178;7.570;2023-02-01T06:31:29;97402.88;;;3.25;94.08
47330;BME280;33060;50.178;7.570;2023-02-01T06:33:56;97388.81;;;3.29;94.19
47330;BME280;33060;50.178;7.570;2023-02-01T06:36:22;97386.59;;;3.18;94.75
47330;BME280;33060;50.178;7.570;2023-02-01T06:38:49;97389.13;;;3.20;95.42
47330;BME280;33060;50.178;7.570;2023-02-01T06:41:16;97381.59;;;3.12;95.13
47330;BME280;33060;50.178;7.570;2023-02-01T06:43:43;97365.34;;;3.05;95.67
47330;BME280;33060;50.178;7.570;2023-02-01T06:46:14;97359.53;;;2.97;95.60
47330;BME280;33060;50.178;7.570;2023-02-01T06:48:41;97367.50;;;2.93;96.35
47330;BME280;33060;50.178;7.570;2023-02-01T06:51:22;97358.72;;;2.95;95.85
47330;BME280;33060;50.178;7.570;2023-02-01T06:53:49;97371.66;;;2.98;95.90
47330;BME280;33060;50.178;7.570;2023-02-01T06:56:16;97385.06;;;2.88;96.10
47330;BME280;33060;50.178;7.570;2023-02-01T06:58:43;97381.69;;;2.84;96.10
47330;BME280;33060;50.178;7.570;2023-02-01T07:01:10;97375.75;;;2.80;95.96
47330;BME280;33060;50.178;7.570;2023-02-01T07:03:38;97370.16;;;2.91;94.79
47330;BME280;33060;50.178;7.570;2023-02-01T07:06:04;97383.34;;;2.87;94.48
47330;BME280;33060;50.178;7.570;2023-02-01T07:08:33;97378.56;;;2.99;93.79
47330;BME280;33060;50.178;7.570;2023-02-01T07:11:02;97389.13;;;2.95;93.22
47330;BME280;33060;50.178;7.570;2023-02-01T07:13:29;97403.97;;;2.93;93.59
47330;BME280;33060;50.178;7.570;2023-02-01T07:16:08;97396.94;;;2.95;93.18
47330;BME280;33060;50.178;7.570;2023-02-01T07:18:35;97397.91;;;2.92;93.34
47330;BME280;33060;50.178;7.570;2023-02-01T07:21:02;97402.16;;;2.95;93.16
47330;BME280;33060;50.178;7.570;2023-02-01T07:23:29;97412.34;;;3.02;93.65
47330;BME280;33060;50.178;7.570;2023-02-01T07:25:57;97418.91;;;3.14;92.75
47330;BME280;33060;50.178;7.570;2023-02-01T07:28:25;97423.94;;;3.19;92.23
47330;BME280;33060;50.178;7.570;2023-02-01T07:30:51;97418.56;;;3.23;91.88
47330;BME280;33060;50.178;7.570;2023-02-01T07:33:23;97426.16;;;3.29;91.59
47330;BME280;33060;50.178;7.570;2023-02-01T07:35:53;97423.28;;;3.37;91.31
47330;BME280;33060;50.178;7.570;2023-02-01T07:38:20;97427.44;;;3.43;90.77
47330;BME280;33060;50.178;7.570;2023-02-01T07:40:48;97415.94;;;3.48;90.72
47330;BME280;33060;50.178;7.570;2023-02-01T07:43:14;97426.03;;;3.57;90.28
47330;BME280;33060;50.178;7.570;2023-02-01T07:45:41;97423.88;;;3.68;89.47
47330;BME280;33060;50.178;7.570;2023-02-01T07:48:08;97429.97;;;3.69;88.75
47330;BME280;33060;50.178;7.570;2023-02-01T07:50:34;97428.91;;;3.73;89.18
47330;BME280;33060;50.178;7.570;2023-02-01T07:53:01;97431.50;;;3.75;88.59
47330;BME280;33060;50.178;7.570;2023-02-01T07:55:28;97437.09;;;3.87;87.05
47330;BME280;33060;50.178;7.570;2023-02-01T07:57:57;97433.84;;;4.04;86.35
47330;BME280;33060;50.178;7.570;2023-02-01T08:00:25;97431.59;;;3.95;87.19
47330;BME280;33060;50.178;7.570;2023-02-01T08:03:11;97430.47;;;4.02;86.87
47330;BME280;33060;50.178;7.570;2023-02-01T08:05:38;97431.13;;;4.07;86.65
47330;BME280;33060;50.178;7.570;2023-02-01T08:08:05;97430.84;;;4.15;85.05
47330;BME280;33060;50.178;7.570;2023-02-01T08:10:32;97436.00;;;4.16;85.02
47330;BME280;33060;50.178;7.570;2023-02-01T08:12:59;97436.38;;;4.29;84.56
47330;BME280;33060;50.178;7.570;2023-02-01T08:15:27;97430.47;;;4.24;84.59
47330;BME280;33060;50.178;7.570;2023-02-01T08:17:54;97432.31;;;4.22;85.02
47330;BME280;33060;50.178;7.570;2023-02-01T08:20:25;97438.78;;;4.12;85.30
47330;BME280;33060;50.178;7.570;2023-02-01T08:22:54;97433.16;;;4.22;84.91
47330;BME280;33060;50.178;7.570;2023-02-01T08:25:22;97429.94;;;4.38;84.24
47330;BME280;33060;50.178;7.570;2023-02-01T08:27:49;97437.09;;;4.33;84.77
47330;BME280;33060;50.178;7.570;2023-02-01T08:30:16;97443.91;;;4.59;83.14
47330;BME280;33060;50.178;7.570;2023-02-01T08:32:43;97449.13;;;4.59;82.87
47330;BME280;33060;50.178;7.570;2023-02-01T08:35:09;97439.59;;;4.58;82.75
47330;BME280;33060;50.178;7.570;2023-02-01T08:37:36;97446.28;;;4.65;82.38
47330;BME280;33060;50.178;7.570;2023-02-01T08:40:04;97453.78;;;4.52;82.84
47330;BME280;33060;50.178;7.570;2023-02-01T08:42:30;97452.31;;;4.45;82.94
47330;BME280;33060;50.178;7.570;2023-02-01T08:45:27;97455.31;;;4.12;84.62
47330;BME280;33060;50.178;7.570;2023-02-01T08:47:57;97456.59;;;4.24;84.82
47330;BME280;33060;50.178;7.570;2023-02-01T08:50:25;97461.44;;;4.11;84.65
47330;BME280;33060;50.178;7.570;2023-02-01T08:52:53;97459.47;;;4.16;84.82
47330;BME280;33060;50.178;7.570;2023-02-01T08:55:20;97461.59;;;4.30;83.51
47330;BME280;33060;50.178;7.570;2023-02-01T08:57:47;97462.84;;;4.20;83.71
47330;BME280;33060;50.178;7.570;2023-02-01T09:00:16;97467.31;;;4.16;84.20
47330;BME280;33060;50.178;7.570;2023-02-01T09:02:43;97472.16;;;4.04;84.53
47330;BME280;33060;50.178;7.570;2023-02-01T09:05:11;97475.47;;;4.09;84.74
47330;BME280;33060;50.178;7.570;2023-02-01T09:07:38;97479.94;;;4.05;84.84
47330;BME280;33060;50.178;7.570;2023-02-01T09:10:05;97471.25;;;4.05;84.64
47330;BME280;33060;50.178;7.570;2023-02-01T09:12:33;97463.19;;;4.11;84.75
47330;BME280;33060;50.178;7.570;2023-02-01T09:15:00;97477.50;;;4.01;84.82
47330;BME280;33060;50.178;7.570;2023-02-01T09:17:28;97486.84;;;4.06;84.83
47330;BME280;33060;50.178;7.570;2023-02-01T09:19:56;97482.25;;;4.13;83.88
47330;BME280;33060;50.178;7.570;2023-02-01T09:22:22;97471.69;;;4.16;83.98
47330;BME280;33060;50.178;7.570;2023-02-01T09:24:49;97488.19;;;4.16;84.06
47330;BME280;33060;50.178;7.570;2023-02-01T09:27:16;97497.06;;;4.12;84.90
47330;BME280;33060;50.178;7.570;2023-02-01T09:29:42;97499.41;;;4.20;84.32
47330;BME280;33060;50.178;7.570;2023-02-01T09:32:09;97503.00;;;4.16;84.33
47330;BME280;33060;50.178;7.570;2023-02-01T09:34:36;97499.06;;;4.29;83.32
47330;BME280;33060;50.178;7.570;2023-02-01T09:37:03;97502.22;;;4.37;82.84
47330;BME280;33060;50.178;7.570;2023-02-01T09:39:29;97500.78;;;4.52;82.83
47330;BME280;33060;50.178;7.570;2023-02-01T09:47:17;97500.56;;;4.80;81.03
47330;BME280;33060;50.178;7.570;2023-02-01T09:50:13;97498.00;;;4.78;81.92
47330;BME280;33060;50.178;7.570;2023-02-01T09:52:48;97501.84;;;4.70;82.17
47330;BME280;33060;50.178;7.570;2023-02-01T09:55:35;97498.75;;;4.59;82.34
47330;BME280;33060;50.178;7.570;2023-02-01T09:58:13;97504.69;;;4.64;82.73
47330;BME280;33060;50.178;7.570;2023-02-01T10:00:47;97503.75;;;4.65;82.15
47330;BME280;33060;50.178;7.570;2023-02-01T10:03:17;97495.50;;;4.53;82.83
47330;BME280;33060;50.178;7.570;2023-02-01T10:09:13;97501.53;;;4.32;83.92
47330;BME280;33060;50.178;7.570;2023-02-01T10:22:42;97510.97;;;4.36;84.00
47330;BME280;33060;50.178;7.570;2023-02-01T10:25:37;97508.50;;;4.55;82.73
47330;BME280;33060;50.178;7.570;2023-02-01T10:28:13;97507.88;;;4.48;82.62
47330;BME280;33060;50.178;7.570;2023-02-01T10:30:46;97501.25;;;4.40;83.31
47330;BME280;33060;50.178;7.570;2023-02-01T10:33:19;97490.81;;;4.40;83.68
47330;BME280;33060;50.178;7.570;2023-02-01T10:35:55;97483.66;;;4.45;82.76
47330;BME280;33060;50.178;7.570;2023-02-01T10:38:27;97489.16;;;4.59;82.88
47330;BME280;33060;50.178;7.570;2023-02-01T10:40:58;97484.31;;;4.50;82.33
47330;BME280;33060;50.178;7.570;2023-02-01T10:43:28;97486.00;;;4.51;83.08
47330;BME280;33060;50.178;7.570;2023-02-01T10:45:54;97477.94;;;4.57;82.86
47330;BME280;33060;50.178;7.570;2023-02-01T10:48:21;97468.56;;;4.51;83.01
47330;BME280;33060;50.178;7.570;2023-02-01T10:50:58;97474.31;;;4.61;82.64
47330;BME280;33060;50.178;7.570;2023-02-01T10:53:34;97472.28;;;4.68;82.67
47330;BME280;33060;50.178;7.570;2023-02-01T10:56:08;97462.66;;;4.68;82.18
47330;BME280;33060;50.178;7.570;2023-02-01T10:58:36;97469.88;;;4.63;82.58
47330;BME280;33060;50.178;7.570;2023-02-01T11:01:16;97475.63;;;4.71;82.18
47330;BME280;33060;50.178;7.570;2023-02-01T11:04:04;97454.28;;;4.60;83.28
47330;BME280;33060;50.178;7.570;2023-02-01T11:06:42;97461.78;;;4.47;83.57
47330;BME280;33060;50.178;7.570;2023-02-01T11:16:58;97462.31;;;4.56;83.36
47330;BME280;33060;50.178;7.570;2023-02-01T11:19:27;97464.88;;;4.57;83.60
47330;BME280;33060;50.178;7.570;2023-02-01T11:21:57;97460.41;;;4.61;82.93
47330;BME280;33060;50.178;7.570;2023-02-01T11:24:27;97458.19;;;4.72;82.24
47330;BME280;33060;50.178;7.570;2023-02-01T11:26:56;97457.97;;;4.78;81.74
47330;BME280;33060;50.178;7.570;2023-02-01T11:29:24;97451.50;;;4.87;82.32
47330;BME280;33060;50.178;7.570;2023-02-01T11:31:59;97444.06;;;4.98;81.27
47330;BME280;33060;50.178;7.570;2023-02-01T11:34:41;97450.59;;;4.88;80.96
47330;BME280;33060;50.178;7.570;2023-02-01T11:37:21;97448.16;;;4.83;81.75
47330;BME280;33060;50.178;7.570;2023-02-01T11:39:57;97446.91;;;4.92;81.72
47330;BME280;33060;50.178;7.570;2023-02-01T11:42:25;97441.09;;;4.85;81.87
47330;BME280;33060;50.178;7.570;2023-02-01T11:47:42;97446.75;;;5.17;80.96
47330;BME280;33060;50.178;7.570;2023-02-01T11:50:15;97428.63;;;5.12;80.35
47330;BME280;33060;50.178;7.570;2023-02-01T11:55:55;97412.16;;;5.10;80.79
47330;BME280;33060;50.178;7.570;2023-02-01T12:04:48;97418.13;;;5.14;79.65
47330;BME280;33060;50.178;7.570;2023-02-01T12:07:36;97399.88;;;5.32;80.00
47330;BME280;33060;50.178;7.570;2023-02-01T12:13:07;97401.44;;;5.36;79.34
47330;BME280;33060;50.178;7.570;2023-02-01T12:21:28;97388.69;;;5.68;78.05
47330;BME280;33060;50.178;7.570;2023-02-01T12:24:22;97387.97;;;5.64;77.52
47330;BME280;33060;50.178;7.570;2023-02-01T12:33:17;97377.44;;;5.27;79.06
47330;BME280;33060;50.178;7.570;2023-02-01T12:44:27;97369.56;;;5.08;79.91
47330;BME280;33060;50.178;7.570;2023-02-01T12:47:09;97367.47;;;4.96;80.54
47330;BME280;33060;50.178;7.570;2023-02-01T12:49:47;97366.66;;;4.94;81.08
47330;BME280;33060;50.178;7.570;2023-02-01T12:52:39;97363.81;;;5.00;80.78
47330;BME280;33060;50.178;7.570;2023-02-01T12:57:45;97343.94;;;4.96;80.28
47330;BME280;33060;50.178;7.570;2023-02-01T13:00:28;97342.75;;;5.23;79.19
47330;BME280;33060;50.178;7.570;2023-02-01T13:03:19;97337.31;;;5.47;78.62
47330;BME280;33060;50.178;7.570;2023-02-01T13:08:43;97325.22;;;5.44;77.78
47330;BME280;33060;50.178;7.570;2023-02-01T13:11:23;97332.94;;;5.47;77.98
47330;BME280;33060;50.178;7.570;2023-02-01T13:14:15;97328.78;;;5.43;78.67
47330;BME280;33060;50.178;7.570;2023-02-01T13:16:51;97345.13;;;5.67;77.08
47330;BME280;33060;50.178;7.570;2023-02-01T13:19:27;97345.06;;;5.68;76.72
47330;BME280;33060;50.178;7.570;2023-02-01T13:21:58;97342.00;;;5.59;76.21
47330;BME280;33060;50.178;7.570;2023-02-01T13:24:37;97345.75;;;5.72;75.83
47330;BME280;33060;50.178;7.570;2023-02-01T13:27:11;97347.09;;;5.81;75.35
47330;BME280;33060;50.178;7.570;2023-02-01T13:38:49;97361.28;;;5.37;77.44
47330;BME280;33060;50.178;7.570;2023-02-01T13:41:25;97360.34;;;5.38;77.44
47330;BME280;33060;50.178;7.570;2023-02-01T13:44:00;97353.41;;;5.37;77.46
47330;BME280;33060;50.178;7.570;2023-02-01T13:46:28;97366.75;;;5.52;76.84
47330;BME280;33060;50.178;7.570;2023-02-01T13:48:59;97359.81;;;5.51;76.26
47330;BME280;33060;50.178;7.570;2023-02-01T13:51:43;97355.78;;;5.44;75.98
47330;BME280;33060;50.178;7.570;2023-02-01T13:54:42;97349.50;;;5.48;76.61
47330;BME280;33060;50.178;7.570;2023-02-01T13:57:35;97339.44;;;5.38;75.71
47330;BME280;33060;50.178;7.570;2023-02-01T14:00:34;97330.88;;;5.54;75.41
47330;BME280;33060;50.178;7.570;2023-02-01T14:21:30;97329.63;;;5.44;75.98
47330;BME280;33060;50.178;7.570;2023-02-01T14:23:58;97325.88;;;5.30;75.92
47330;BME280;33060;50.178;7.570;2023-02-01T14:34:22;97318.88;;;5.31;75.96
47330;BME280;33060;50.178;7.570;2023-02-01T14:36:57;97317.03;;;5.33;75.83
47330;BME280;33060;50.178;7.570;2023-02-01T14:39:29;97317.03;;;5.33;75.43
47330;BME280;33060;50.178;7.570;2023-02-01T14:42:00;97327.41;;;5.34;75.52
47330;BME280;33060;50.178;7.570;2023-02-01T14:44:33;97308.97;;;5.37;74.65
47330;BME280;33060;50.178;7.570;2023-02-01T14:47:10;97317.28;;;5.27;74.90
47330;BME280;33060;50.178;7.570;2023-02-01T14:52:43;97319.91;;;5.46;73.92
47330;BME280;33060;50.178;7.570;2023-02-01T14:55:18;97323.88;;;5.35;74.74
47330;BME280;33060;50.178;7.570;2023-02-01T14:57:50;97326.06;;;5.26;74.77
47330;BME280;33060;50.178;7.570;2023-02-01T15:02:46;97330.19;;;5.31;74.59
47330;BME280;33060;50.178;7.570;2023-02-01T15:05:36;97317.56;;;5.21;75.41
47330;BME280;33060;50.178;7.570;2023-02-01T15:08:17;97325.50;;;5.38;74.58
47330;BME280;33060;50.178;7.570;2023-02-01T15:10:47;97334.59;;;5.29;74.95
47330;BME280;33060;50.178;7.570;2023-02-01T15:13:25;97348.81;;;5.24;74.50
47330;BME280;33060;50.178;7.570;2023-02-01T15:16:12;97347.13;;;5.23;75.05
47330;BME280;33060;50.178;7.570;2023-02-01T15:18:40;97348.69;;;5.27;74.42
47330;BME280;33060;50.178;7.570;2023-02-01T15:21:16;97351.44;;;5.24;74.53
47330;BME280;33060;50.178;7.570;2023-02-01T15:24:20;97355.59;;;5.28;74.20
47330;BME280;33060;50.178;7.570;2023-02-01T15:26:48;97362.34;;;5.33;73.85
47330;BME280;33060;50.178;7.570;2023-02-01T15:29:16;97357.28;;;5.29;73.43
47330;BME280;33060;50.178;7.570;2023-02-01T15:31:46;97365.34;;;5.24;74.22
47330;BME280;33060;50.178;7.570;2023-02-01T15:34:14;97368.03;;;5.23;73.57
47330;BME280;33060;50.178;7.570;2023-02-01T15:36:42;97361.59;;;5.30;73.64
47330;BME280;33060;50.178;7.570;2023-02-01T15:39:25;97363.97;;;5.36;73.04
47330;BME280;33060;50.178;7.570;2023-02-01T15:42:27;97368.50;;;5.32;73.80
47330;BME280;33060;50.178;7.570;2023-02-01T15:44:46;97361.50;;;5.33;73.03
47330;BME280;33060;50.178;7.570;2023-02-01T15:47:17;97376.41;;;5.31;73.08
47330;BME280;33060;50.178;7.570;2023-02-01T15:49:49;97379.88;;;5.31;72.98